»·PEaware :: AAY44 KLAS-KGPI

AAY44 :: KLAS-KGPI

FLIGHT INFORMATION

Flight Status: Arrived
Operator:
Allegiant Air
More flights by this operator :: More flights under this callsign
Pilot: Henderson P. (1210)
Aircraft: AIRBUS A320
(A320)
More flights by this aircraft type
Origin: KLAS McCarran Intl
United States
Destination: KGPI Glacier Park Intl
United States
More flights between these airports :: More routes between these airports
Route: +STAAV8 MLF J9 FRNZY J9 FFU J9 DLN FCA
File this flight plan on PilotEdge
Remarks:
Altitude:
(Current/Filed)
38,000ft
Speed:
(Current/Filed)
453kts
Departed: 18-Oct-18 06:26 AM
Arrived: 18-Oct-18 08:26 AM
Distance/Time
Traveled:
735nm/2:00
Distance/Time
To Go:
Arrived

Flight Plot

Page will automatically refresh every two minutes.

Flight plan parsing failed; only flown route is shown


Map Options




Map Legend


Flown Route
Filed Route
Departure Airport
Arrival Airport
Navaid (VOR, NDB)
Fix

Horizontal Profiles

Position Reports

Time Latitude Longitude Heading Altitude Ground
Speed
18-Oct-18 05:31 36.085477 -115.155075 105 2195ft 0kts
18-Oct-18 05:32 36.085477 -115.155075 105 2195ft 0kts
18-Oct-18 05:33 36.085477 -115.155075 105 2195ft 0kts
18-Oct-18 05:34 36.085477 -115.155075 105 2195ft 0kts
18-Oct-18 05:35 36.085477 -115.155075 105 2195ft 0kts
18-Oct-18 05:36 36.085477 -115.155075 105 2195ft 0kts
18-Oct-18 05:37 36.085477 -115.155075 105 2195ft 0kts
18-Oct-18 05:38 36.085477 -115.155075 105 2195ft 0kts
18-Oct-18 05:39 36.085477 -115.155075 105 2195ft 0kts
18-Oct-18 05:40 36.085477 -115.155075 105 2195ft 0kts
18-Oct-18 05:41 36.085477 -115.155075 105 2195ft 0kts
18-Oct-18 05:42 36.085477 -115.155075 105 2195ft 0kts
18-Oct-18 05:43 36.085477 -115.155075 105 2195ft 0kts
18-Oct-18 05:44 36.085477 -115.155075 105 2195ft 0kts
18-Oct-18 05:45 36.085477 -115.155075 105 2195ft 0kts
18-Oct-18 05:46 36.085477 -115.155075 105 2195ft 0kts
18-Oct-18 05:47 36.085477 -115.155075 105 2195ft 0kts
18-Oct-18 05:48 36.085477 -115.155075 105 2195ft 0kts
18-Oct-18 05:49 36.085477 -115.155075 105 2195ft 0kts
18-Oct-18 05:50 36.085477 -115.155075 105 2195ft 0kts
18-Oct-18 05:51 36.085477 -115.155075 105 2195ft 0kts
18-Oct-18 05:52 36.085477 -115.155075 105 2195ft 0kts
18-Oct-18 05:53 36.085477 -115.155075 105 2195ft 0kts
18-Oct-18 05:54 36.085477 -115.155075 105 2195ft 0kts
18-Oct-18 05:55 36.085477 -115.155075 105 2195ft 0kts
18-Oct-18 05:56 36.085477 -115.155075 105 2195ft 0kts
18-Oct-18 05:57 36.085477 -115.155075 105 2195ft 0kts
18-Oct-18 05:58 36.085477 -115.155075 105 2195ft 0kts
18-Oct-18 05:59 36.085477 -115.155075 105 2195ft 0kts
18-Oct-18 06:00 36.085477 -115.155075 105 2195ft 0kts
18-Oct-18 06:01 36.085477 -115.155075 105 2195ft 0kts
18-Oct-18 06:02 36.085477 -115.155075 105 2195ft 0kts
18-Oct-18 06:03 36.085477 -115.155075 105 2195ft 0kts
18-Oct-18 06:04 36.085477 -115.155075 105 2195ft 0kts
18-Oct-18 06:05 36.085477 -115.155075 105 2195ft 0kts
18-Oct-18 06:06 36.085477 -115.155075 105 2195ft 0kts
18-Oct-18 06:07 36.085477 -115.155075 105 2195ft 0kts
18-Oct-18 06:08 36.085477 -115.155075 105 2195ft 0kts
18-Oct-18 06:09 36.085477 -115.155075 105 2195ft 0kts
18-Oct-18 06:10 36.085477 -115.155075 105 2195ft 0kts
18-Oct-18 06:11 36.085477 -115.155075 105 2195ft 0kts
18-Oct-18 06:12 36.085477 -115.155075 105 2195ft 0kts
18-Oct-18 06:13 36.085477 -115.155075 105 2195ft 0kts
18-Oct-18 06:14 36.085477 -115.155075 105 2195ft 0kts
18-Oct-18 06:15 36.085477 -115.155075 105 2195ft 0kts
18-Oct-18 06:16 36.085477 -115.155075 105 2195ft 0kts
18-Oct-18 06:17 36.085477 -115.155075 105 2195ft 0kts
18-Oct-18 06:18 36.085477 -115.155075 105 2195ft 0kts
18-Oct-18 06:19 36.085643 -115.155839 104 2195ft 1kts
18-Oct-18 06:20 36.085657 -115.155904 104 2195ft 0kts
18-Oct-18 06:21 36.085652 -115.155890 111 2195ft 0kts
18-Oct-18 06:22 36.083293 -115.154939 154 2195ft 19kts
18-Oct-18 06:23 36.078888 -115.151463 110 2195ft 18kts
18-Oct-18 06:24 36.078380 -115.145056 94 2195ft 19kts
18-Oct-18 06:25 36.078275 -115.137937 89 2195ft 21kts
18-Oct-18 06:26 36.078295 -115.130103 91 2195ft 23kts
18-Oct-18 06:27 36.078011 -115.122290 126 2195ft 18kts
18-Oct-18 06:28 36.076410 -115.137332 270 2195ft 156kts
18-Oct-18 06:29 36.076230 -115.201929 270 4221ft 208kts
18-Oct-18 06:30 36.085112 -115.279663 316 6552ft 244kts
18-Oct-18 06:31 36.150870 -115.290653 31 9469ft 255kts
18-Oct-18 06:32 36.187429 -115.214155 67 11750ft 290kts
18-Oct-18 06:33 36.197466 -115.103401 88 12979ft 357kts
18-Oct-18 06:34 36.198390 -114.976784 86 15217ft 376kts
18-Oct-18 06:35 36.199754 -114.844402 86 17249ft 393kts
18-Oct-18 06:36 36.250336 -114.732925 32 19124ft 385kts
18-Oct-18 06:37 36.337289 -114.652335 34 20970ft 396kts
18-Oct-18 06:38 36.425578 -114.567776 32 22668ft 404kts
18-Oct-18 06:39 36.515536 -114.482510 33 24234ft 411kts
18-Oct-18 06:40 36.611548 -114.403338 27 25610ft 417kts
18-Oct-18 06:41 36.711004 -114.326464 28 26893ft 425kts
18-Oct-18 06:42 36.812272 -114.247875 27 28098ft 431kts
18-Oct-18 06:43 36.914563 -114.168078 27 29236ft 437kts
18-Oct-18 06:44 37.018465 -114.086918 27 30295ft 441kts
18-Oct-18 06:45 37.122248 -114.005508 27 31559ft 439kts
18-Oct-18 06:46 37.227004 -113.923050 28 32252ft 450kts
18-Oct-18 06:47 37.332121 -113.840081 28 33432ft 445kts
18-Oct-18 06:48 37.437034 -113.756940 28 34358ft 445kts
18-Oct-18 06:49 37.541874 -113.673579 28 35089ft 446kts
18-Oct-18 06:50 37.647105 -113.589724 28 35682ft 449kts
18-Oct-18 06:51 37.752911 -113.505022 29 36187ft 451kts
18-Oct-18 06:52 37.859225 -113.419679 29 36578ft 454kts
18-Oct-18 06:53 37.966587 -113.333126 29 36873ft 459kts
18-Oct-18 06:54 38.073933 -113.246358 30 37422ft 455kts
18-Oct-18 06:55 38.181033 -113.159418 30 37581ft 460kts
18-Oct-18 06:56 38.289219 -113.071356 30 37768ft 463kts
18-Oct-18 06:57 38.401319 -112.990221 21 37921ft 463kts
18-Oct-18 06:58 38.520263 -112.926756 21 38137ft 464kts
18-Oct-18 06:59 38.639002 -112.861617 21 38307ft 465kts
18-Oct-18 07:00 38.758145 -112.796497 21 38363ft 468kts
18-Oct-18 07:01 38.878627 -112.730370 21 38369ft 471kts
18-Oct-18 07:02 38.997597 -112.664723 21 38330ft 460kts
18-Oct-18 07:03 39.115372 -112.599612 21 38317ft 463kts
18-Oct-18 07:04 39.234335 -112.533528 22 38350ft 467kts
18-Oct-18 07:05 39.353733 -112.467021 22 38403ft 469kts
18-Oct-18 07:06 39.473794 -112.399834 22 38405ft 471kts
18-Oct-18 07:07 39.594546 -112.332030 22 38407ft 473kts
18-Oct-18 07:08 39.714524 -112.264392 22 38374ft 466kts
18-Oct-18 07:09 39.833705 -112.196970 22 38371ft 467kts
18-Oct-18 07:10 39.952576 -112.129462 23 38365ft 467kts
18-Oct-18 07:11 40.071373 -112.060234 23 38367ft 467kts
18-Oct-18 07:12 40.189602 -111.990838 23 38382ft 467kts
18-Oct-18 07:13 40.312680 -111.941732 357 38340ft 463kts
18-Oct-18 07:14 40.441203 -111.953037 355 38323ft 464kts
18-Oct-18 07:15 40.570077 -111.961322 355 38357ft 463kts
18-Oct-18 07:16 40.694009 -111.970564 356 38373ft 463kts
18-Oct-18 07:17 40.822530 -111.979777 356 38393ft 462kts
18-Oct-18 07:18 40.951186 -111.988564 356 38397ft 462kts
18-Oct-18 07:19 41.079581 -111.997162 356 38397ft 461kts
18-Oct-18 07:20 41.207610 -112.005803 356 38395ft 459kts
18-Oct-18 07:21 41.332772 -112.014247 357 38363ft 447kts
18-Oct-18 07:22 41.456781 -112.022651 357 38367ft 446kts
18-Oct-18 07:23 41.580876 -112.031101 357 38388ft 446kts
18-Oct-18 07:24 41.705096 -112.039607 357 38404ft 447kts
18-Oct-18 07:25 41.829112 -112.048107 357 38406ft 447kts
18-Oct-18 07:26 41.953480 -112.056683 357 38410ft 447kts
18-Oct-18 07:27 42.078233 -112.065291 357 38408ft 448kts
18-Oct-18 07:28 42.202535 -112.073937 357 38406ft 448kts
18-Oct-18 07:29 42.326978 -112.082610 357 38402ft 448kts
18-Oct-18 07:30 42.451744 -112.091352 357 38399ft 447kts
18-Oct-18 07:31 42.575623 -112.100019 357 38395ft 447kts
18-Oct-18 07:32 42.700000 -112.108835 357 38393ft 445kts
18-Oct-18 07:33 42.823432 -112.117558 357 38397ft 444kts
18-Oct-18 07:34 42.946333 -112.126292 357 38400ft 442kts
18-Oct-18 07:35 43.069500 -112.135070 357 38404ft 441kts
18-Oct-18 07:36 43.191662 -112.143842 357 38403ft 439kts
18-Oct-18 07:37 43.313723 -112.152636 357 38402ft 438kts
18-Oct-18 07:38 43.435111 -112.161410 357 38406ft 436kts
18-Oct-18 07:39 43.556070 -112.170161 357 38406ft 434kts
18-Oct-18 07:40 43.676529 -112.178940 357 38402ft 434kts
18-Oct-18 07:41 43.797119 -112.187770 357 38402ft 433kts
18-Oct-18 07:42 43.917456 -112.196607 357 38401ft 433kts
18-Oct-18 07:43 44.037535 -112.205440 357 38393ft 433kts
18-Oct-18 07:44 44.156747 -112.228105 349 38370ft 434kts
18-Oct-18 07:45 44.274917 -112.262598 349 38380ft 433kts
18-Oct-18 07:46 44.393094 -112.296529 349 38387ft 433kts
18-Oct-18 07:47 44.511069 -112.330610 349 38381ft 433kts
18-Oct-18 07:48 44.629381 -112.364948 349 38376ft 433kts
18-Oct-18 07:49 44.747179 -112.399283 349 38374ft 433kts
18-Oct-18 07:50 44.865022 -112.433766 349 38369ft 432kts
18-Oct-18 07:51 44.983144 -112.468513 348 38365ft 432kts
18-Oct-18 07:52 45.100770 -112.503182 348 38358ft 432kts
18-Oct-18 07:53 45.218417 -112.538054 348 38353ft 432kts
18-Oct-18 07:54 45.332888 -112.590482 340 38355ft 432kts
18-Oct-18 07:55 45.445614 -112.649437 340 38358ft 432kts
18-Oct-18 07:56 45.558437 -112.708502 340 38367ft 432kts
18-Oct-18 07:57 45.671477 -112.767839 340 38369ft 432kts
18-Oct-18 07:58 45.784118 -112.827288 340 38367ft 431kts
18-Oct-18 07:59 45.896785 -112.886961 340 38368ft 431kts
18-Oct-18 08:00 46.009423 -112.946913 340 38366ft 431kts
18-Oct-18 08:01 46.121573 -113.006869 340 38368ft 430kts
18-Oct-18 08:02 46.234151 -113.067280 340 38370ft 430kts
18-Oct-18 08:03 46.346156 -113.127703 340 38367ft 429kts
18-Oct-18 08:04 46.457846 -113.188154 340 38370ft 429kts
18-Oct-18 08:05 46.569391 -113.248792 339 37983ft 426kts
18-Oct-18 08:06 46.680572 -113.309573 340 36520ft 426kts
18-Oct-18 08:07 46.791724 -113.370540 340 33950ft 425kts
18-Oct-18 08:08 46.901665 -113.431188 340 31336ft 423kts
18-Oct-18 08:09 47.011698 -113.492063 340 28828ft 418kts
18-Oct-18 08:10 47.119007 -113.551739 339 26406ft 406kts
18-Oct-18 08:11 47.222999 -113.609803 339 24032ft 394kts
18-Oct-18 08:12 47.324255 -113.666585 339 21886ft 387kts
18-Oct-18 08:13 47.424619 -113.723066 338 20879ft 383kts
18-Oct-18 08:14 47.506961 -113.769649 338 19427ft 376kts
18-Oct-18 08:15 47.618470 -113.836274 324 17064ft 364kts
18-Oct-18 08:16 47.669909 -113.931921 303 15325ft 352kts
18-Oct-18 08:17 47.722637 -114.051802 303 13262ft 342kts
18-Oct-18 08:18 47.782876 -114.187285 305 11168ft 333kts
18-Oct-18 08:19 47.845849 -114.247208 333 10002ft 308kts
18-Oct-18 08:20 47.919315 -114.297469 333 10014ft 286kts
18-Oct-18 08:21 47.991103 -114.346455 333 9523ft 281kts
18-Oct-18 08:22 48.060962 -114.394478 334 8081ft 265kts
18-Oct-18 08:23 48.125526 -114.433388 0 6781ft 240kts
18-Oct-18 08:24 48.179979 -114.391183 34 5834ft 205kts
18-Oct-18 08:25 48.220901 -114.348760 33 4876ft 151kts
18-Oct-18 08:26 48.253984 -114.314350 33 4101ft 142kts
18-Oct-18 08:27 48.286370 -114.280591 33 3320ft 140kts
18-Oct-18 08:28 48.310544 -114.255420 32 2983ft 27kts
18-Oct-18 08:29 48.311568 -114.251067 144 2983ft 9kts
18-Oct-18 08:30 48.310034 -114.252498 214 2983ft 7kts
18-Oct-18 08:31 48.308270 -114.254217 215 2983ft 8kts
18-Oct-18 08:32 48.307193 -114.254067 124 2983ft 0kts
18-Oct-18 08:33 48.307190 -114.254061 124 2983ft 0kts
18-Oct-18 08:34 48.307190 -114.254061 124 2983ft 0kts
18-Oct-18 08:35 48.307190 -114.254061 124 2983ft 0kts
18-Oct-18 08:36 48.307190 -114.254061 124 2983ft 0kts
18-Oct-18 08:37 48.307190 -114.254061 124 2983ft 0kts
18-Oct-18 08:38 48.307190 -114.254061 124 2983ft 0kts
18-Oct-18 08:39 48.307190 -114.254061 124 2983ft 0kts
18-Oct-18 08:40 48.307190 -114.254061 124 2983ft 0kts
18-Oct-18 08:41 48.307190 -114.254061 124 2983ft 0kts
18-Oct-18 08:42 48.307190 -114.254061 124 2983ft 0kts

Navigation Log

Ident Type
Flight plan parsing failed, navigation log unavailable